sensor_id;sensor_type;location;lat;lon;timestamp;P1;durP1;ratioP1;P2;durP2;ratioP2
50104;SDS011;47690;39.202;-77.198;2023-04-15T00:01:01;2.83;;;2.20;;
50104;SDS011;47690;39.202;-77.198;2023-04-15T00:03:31;2.30;;;2.08;;
50104;SDS011;47690;39.202;-77.198;2023-04-15T00:06:03;2.80;;;2.25;;
50104;SDS011;47690;39.202;-77.198;2023-04-15T00:08:32;2.30;;;2.10;;
50104;SDS011;47690;39.202;-77.198;2023-04-15T00:11:01;2.95;;;2.00;;
50104;SDS011;47690;39.202;-77.198;2023-04-15T00:13:34;2.13;;;1.92;;
50104;SDS011;47690;39.202;-77.198;2023-04-15T00:16:04;2.20;;;2.00;;
50104;SDS011;47690;39.202;-77.198;2023-04-15T00:18:36;2.20;;;2.00;;
50104;SDS011;47690;39.202;-77.198;2023-04-15T00:21:07;2.10;;;1.90;;
50104;SDS011;47690;39.202;-77.198;2023-04-15T00:23:39;2.95;;;1.98;;
50104;SDS011;47690;39.202;-77.198;2023-04-15T00:26:11;2.20;;;2.00;;
50104;SDS011;47690;39.202;-77.198;2023-04-15T00:28:42;2.17;;;1.98;;
50104;SDS011;47690;39.202;-77.198;2023-04-15T00:31:17;3.22;;;2.10;;
50104;SDS011;47690;39.202;-77.198;2023-04-15T00:33:47;2.70;;;2.30;;
50104;SDS011;47690;39.202;-77.198;2023-04-15T00:36:16;2.40;;;2.20;;
50104;SDS011;47690;39.202;-77.198;2023-04-15T00:38:46;2.42;;;2.20;;
50104;SDS011;47690;39.202;-77.198;2023-04-15T00:41:15;3.10;;;2.50;;
50104;SDS011;47690;39.202;-77.198;2023-04-15T00:43:46;3.40;;;2.50;;
50104;SDS011;47690;39.202;-77.198;2023-04-15T00:46:15;3.33;;;2.22;;
50104;SDS011;47690;39.202;-77.198;2023-04-15T00:48:48;3.33;;;2.25;;
50104;SDS011;47690;39.202;-77.198;2023-04-15T00:51:22;3.63;;;2.20;;
50104;SDS011;47690;39.202;-77.198;2023-04-15T00:53:53;3.00;;;2.10;;
50104;SDS011;47690;39.202;-77.198;2023-04-15T00:56:22;2.78;;;2.30;;
50104;SDS011;47690;39.202;-77.198;2023-04-15T00:58:53;2.60;;;2.10;;
50104;SDS011;47690;39.202;-77.198;2023-04-15T01:01:24;2.47;;;2.28;;
50104;SDS011;47690;39.202;-77.198;2023-04-15T01:03:56;2.47;;;2.28;;
50104;SDS011;47690;39.202;-77.198;2023-04-15T01:06:27;3.25;;;2.22;;
50104;SDS011;47690;39.202;-77.198;2023-04-15T01:08:57;2.30;;;2.10;;
50104;SDS011;47690;39.202;-77.198;2023-04-15T01:11:31;2.20;;;2.00;;
50104;SDS011;47690;39.202;-77.198;2023-04-15T01:14:03;2.15;;;1.90;;
50104;SDS011;47690;39.202;-77.198;2023-04-15T01:16:32;2.00;;;1.80;;
50104;SDS011;47690;39.202;-77.198;2023-04-15T01:19:02;1.95;;;1.85;;
50104;SDS011;47690;39.202;-77.198;2023-04-15T01:21:36;2.40;;;1.90;;
50104;SDS011;47690;39.202;-77.198;2023-04-15T01:24:09;2.10;;;1.90;;
50104;SDS011;47690;39.202;-77.198;2023-04-15T01:26:47;2.10;;;1.90;;
50104;SDS011;47690;39.202;-77.198;2023-04-15T01:29:17;2.13;;;1.92;;
50104;SDS011;47690;39.202;-77.198;2023-04-15T01:31:53;2.10;;;1.67;;
50104;SDS011;47690;39.202;-77.198;2023-04-15T01:34:49;1.83;;;1.73;;
50104;SDS011;47690;39.202;-77.198;2023-04-15T01:37:36;2.40;;;1.83;;
50104;SDS011;47690;39.202;-77.198;2023-04-15T01:40:05;1.70;;;1.60;;
50104;SDS011;47690;39.202;-77.198;2023-04-15T01:42:37;2.58;;;1.90;;
50104;SDS011;47690;39.202;-77.198;2023-04-15T01:45:10;2.00;;;1.80;;
50104;SDS011;47690;39.202;-77.198;2023-04-15T01:47:42;3.65;;;2.13;;
50104;SDS011;47690;39.202;-77.198;2023-04-15T01:50:13;1.80;;;1.70;;
50104;SDS011;47690;39.202;-77.198;2023-04-15T01:52:46;1.95;;;1.80;;
50104;SDS011;47690;39.202;-77.198;2023-04-15T01:55:19;2.10;;;1.90;;
50104;SDS011;47690;39.202;-77.198;2023-04-15T01:57:52;1.75;;;1.63;;
50104;SDS011;47690;39.202;-77.198;2023-04-15T02:00:25;2.42;;;1.90;;
50104;SDS011;47690;39.202;-77.198;2023-04-15T02:02:57;2.05;;;1.70;;
50104;SDS011;47690;39.202;-77.198;2023-04-15T02:05:31;2.50;;;1.85;;
50104;SDS011;47690;39.202;-77.198;2023-04-15T02:08:04;2.90;;;1.90;;
50104;SDS011;47690;39.202;-77.198;2023-04-15T02:10:39;2.47;;;2.03;;
50104;SDS011;47690;39.202;-77.198;2023-04-15T02:13:10;3.25;;;1.70;;
50104;SDS011;47690;39.202;-77.198;2023-04-15T02:15:40;2.10;;;1.67;;
50104;SDS011;47690;39.202;-77.198;2023-04-15T02:18:20;2.38;;;1.88;;
50104;SDS011;47690;39.202;-77.198;2023-04-15T02:20:51;1.98;;;1.85;;
50104;SDS011;47690;39.202;-77.198;2023-04-15T02:23:22;1.95;;;1.75;;
50104;SDS011;47690;39.202;-77.198;2023-04-15T02:25:55;2.05;;;1.73;;
50104;SDS011;47690;39.202;-77.198;2023-04-15T02:28:27;1.92;;;1.52;;
50104;SDS011;47690;39.202;-77.198;2023-04-15T02:31:10;2.33;;;1.70;;
50104;SDS011;47690;39.202;-77.198;2023-04-15T02:33:42;1.95;;;1.70;;
50104;SDS011;47690;39.202;-77.198;2023-04-15T02:36:15;2.00;;;1.85;;
50104;SDS011;47690;39.202;-77.198;2023-04-15T02:38:48;1.98;;;1.67;;
50104;SDS011;47690;39.202;-77.198;2023-04-15T02:41:20;2.20;;;1.92;;
50104;SDS011;47690;39.202;-77.198;2023-04-15T02:44:00;3.05;;;2.45;;
50104;SDS011;47690;39.202;-77.198;2023-04-15T02:46:31;2.60;;;2.20;;
50104;SDS011;47690;39.202;-77.198;2023-04-15T02:49:01;2.50;;;2.30;;
50104;SDS011;47690;39.202;-77.198;2023-04-15T02:51:32;2.70;;;2.38;;
50104;SDS011;47690;39.202;-77.198;2023-04-15T02:54:07;4.85;;;2.50;;
50104;SDS011;47690;39.202;-77.198;2023-04-15T02:56:37;3.33;;;2.60;;
50104;SDS011;47690;39.202;-77.198;2023-04-15T02:59:08;3.17;;;2.60;;
50104;SDS011;47690;39.202;-77.198;2023-04-15T03:01:43;4.70;;;3.00;;
50104;SDS011;47690;39.202;-77.198;2023-04-15T03:04:15;3.25;;;2.70;;
50104;SDS011;47690;39.202;-77.198;2023-04-15T03:06:45;2.97;;;2.67;;
50104;SDS011;47690;39.202;-77.198;2023-04-15T03:09:19;3.25;;;2.80;;
50104;SDS011;47690;39.202;-77.198;2023-04-15T03:11:49;3.60;;;2.70;;
50104;SDS011;47690;39.202;-77.198;2023-04-15T03:14:27;3.10;;;2.67;;
50104;SDS011;47690;39.202;-77.198;2023-04-15T03:17:00;3.00;;;2.70;;
50104;SDS011;47690;39.202;-77.198;2023-04-15T03:19:31;2.88;;;2.55;;
50104;SDS011;47690;39.202;-77.198;2023-04-15T03:22:04;3.03;;;2.72;;
50104;SDS011;47690;39.202;-77.198;2023-04-15T03:24:35;3.25;;;2.67;;
50104;SDS011;47690;39.202;-77.198;2023-04-15T03:27:10;2.83;;;2.53;;
50104;SDS011;47690;39.202;-77.198;2023-04-15T03:29:42;3.45;;;2.90;;
50104;SDS011;47690;39.202;-77.198;2023-04-15T03:32:14;4.70;;;2.58;;
50104;SDS011;47690;39.202;-77.198;2023-04-15T03:34:47;3.38;;;2.75;;
50104;SDS011;47690;39.202;-77.198;2023-04-15T03:37:17;3.22;;;2.92;;
50104;SDS011;47690;39.202;-77.198;2023-04-15T03:39:48;3.30;;;2.88;;
50104;SDS011;47690;39.202;-77.198;2023-04-15T03:42:19;3.10;;;2.80;;
50104;SDS011;47690;39.202;-77.198;2023-04-15T03:44:51;4.40;;;2.97;;
50104;SDS011;47690;39.202;-77.198;2023-04-15T03:47:23;3.00;;;2.70;;
50104;SDS011;47690;39.202;-77.198;2023-04-15T03:49:53;3.42;;;2.97;;
50104;SDS011;47690;39.202;-77.198;2023-04-15T03:52:25;4.00;;;3.10;;
50104;SDS011;47690;39.202;-77.198;2023-04-15T03:54:57;4.07;;;2.90;;
50104;SDS011;47690;39.202;-77.198;2023-04-15T03:57:29;4.18;;;2.95;;
50104;SDS011;47690;39.202;-77.198;2023-04-15T04:00:04;3.53;;;2.88;;
50104;SDS011;47690;39.202;-77.198;2023-04-15T04:02:39;3.80;;;2.97;;
50104;SDS011;47690;39.202;-77.198;2023-04-15T04:05:10;3.10;;;2.80;;
50104;SDS011;47690;39.202;-77.198;2023-04-15T04:07:42;3.17;;;2.70;;
50104;SDS011;47690;39.202;-77.198;2023-04-15T04:10:13;3.42;;;3.13;;
50104;SDS011;47690;39.202;-77.198;2023-04-15T04:12:43;3.20;;;2.90;;
50104;SDS011;47690;39.202;-77.198;2023-04-15T04:15:13;3.08;;;2.78;;
50104;SDS011;47690;39.202;-77.198;2023-04-15T04:17:45;4.07;;;3.10;;
50104;SDS011;47690;39.202;-77.198;2023-04-15T04:20:15;5.05;;;2.90;;
50104;SDS011;47690;39.202;-77.198;2023-04-15T04:22:45;3.30;;;2.70;;
50104;SDS011;47690;39.202;-77.198;2023-04-15T04:25:15;3.22;;;2.80;;
50104;SDS011;47690;39.202;-77.198;2023-04-15T04:27:47;3.20;;;2.80;;
50104;SDS011;47690;39.202;-77.198;2023-04-15T04:30:19;3.83;;;2.97;;
50104;SDS011;47690;39.202;-77.198;2023-04-15T04:32:49;3.13;;;2.80;;
50104;SDS011;47690;39.202;-77.198;2023-04-15T04:35:20;3.88;;;2.83;;
50104;SDS011;47690;39.202;-77.198;2023-04-15T04:37:52;3.60;;;2.90;;
50104;SDS011;47690;39.202;-77.198;2023-04-15T04:40:24;3.30;;;3.00;;
50104;SDS011;47690;39.202;-77.198;2023-04-15T04:42:58;4.20;;;2.90;;
50104;SDS011;47690;39.202;-77.198;2023-04-15T04:45:31;4.30;;;2.97;;
50104;SDS011;47690;39.202;-77.198;2023-04-15T04:48:01;3.13;;;2.70;;
50104;SDS011;47690;39.202;-77.198;2023-04-15T04:50:38;3.15;;;2.72;;
50104;SDS011;47690;39.202;-77.198;2023-04-15T04:53:10;2.80;;;2.53;;
50104;SDS011;47690;39.202;-77.198;2023-04-15T04:55:40;3.55;;;2.70;;
50104;SDS011;47690;39.202;-77.198;2023-04-15T04:58:30;3.22;;;2.60;;
50104;SDS011;47690;39.202;-77.198;2023-04-15T05:01:01;3.13;;;2.53;;
50104;SDS011;47690;39.202;-77.198;2023-04-15T05:03:32;2.85;;;2.55;;
50104;SDS011;47690;39.202;-77.198;2023-04-15T05:08:38;2.50;;;2.30;;
50104;SDS011;47690;39.202;-77.198;2023-04-15T05:11:09;2.88;;;2.50;;
50104;SDS011;47690;39.202;-77.198;2023-04-15T05:13:43;2.80;;;2.20;;
50104;SDS011;47690;39.202;-77.198;2023-04-15T05:16:13;2.40;;;2.20;;
50104;SDS011;47690;39.202;-77.198;2023-04-15T05:18:43;2.97;;;2.60;;
50104;SDS011;47690;39.202;-77.198;2023-04-15T05:21:14;2.60;;;2.28;;
50104;SDS011;47690;39.202;-77.198;2023-04-15T05:23:47;2.95;;;2.38;;
50104;SDS011;47690;39.202;-77.198;2023-04-15T05:26:18;3.28;;;2.63;;
50104;SDS011;47690;39.202;-77.198;2023-04-15T05:28:50;2.70;;;2.40;;
50104;SDS011;47690;39.202;-77.198;2023-04-15T05:31:25;2.60;;;2.40;;
50104;SDS011;47690;39.202;-77.198;2023-04-15T05:33:58;2.72;;;2.30;;
50104;SDS011;47690;39.202;-77.198;2023-04-15T05:36:32;2.50;;;2.30;;
50104;SDS011;47690;39.202;-77.198;2023-04-15T05:39:04;2.70;;;2.50;;
50104;SDS011;47690;39.202;-77.198;2023-04-15T05:41:36;2.50;;;2.28;;
50104;SDS011;47690;39.202;-77.198;2023-04-15T05:44:10;2.58;;;2.17;;
50104;SDS011;47690;39.202;-77.198;2023-04-15T05:46:42;2.75;;;2.40;;
50104;SDS011;47690;39.202;-77.198;2023-04-15T05:49:12;2.53;;;2.33;;
50104;SDS011;47690;39.202;-77.198;2023-04-15T05:51:46;2.80;;;2.50;;
50104;SDS011;47690;39.202;-77.198;2023-04-15T05:54:18;2.50;;;2.30;;
50104;SDS011;47690;39.202;-77.198;2023-04-15T05:56:48;2.60;;;2.40;;
50104;SDS011;47690;39.202;-77.198;2023-04-15T06:01:53;2.45;;;2.25;;
50104;SDS011;47690;39.202;-77.198;2023-04-15T06:04:25;2.72;;;2.50;;
50104;SDS011;47690;39.202;-77.198;2023-04-15T06:07:00;2.55;;;2.35;;
50104;SDS011;47690;39.202;-77.198;2023-04-15T06:09:30;2.80;;;2.30;;
50104;SDS011;47690;39.202;-77.198;2023-04-15T06:12:01;2.33;;;2.13;;
50104;SDS011;47690;39.202;-77.198;2023-04-15T06:14:32;2.88;;;2.50;;
50104;SDS011;47690;39.202;-77.198;2023-04-15T06:17:05;2.85;;;2.40;;
50104;SDS011;47690;39.202;-77.198;2023-04-15T06:19:37;2.83;;;2.28;;
50104;SDS011;47690;39.202;-77.198;2023-04-15T06:22:09;2.85;;;2.30;;
50104;SDS011;47690;39.202;-77.198;2023-04-15T06:24:41;2.70;;;2.50;;
50104;SDS011;47690;39.202;-77.198;2023-04-15T06:27:12;2.65;;;2.45;;
50104;SDS011;47690;39.202;-77.198;2023-04-15T06:29:48;2.60;;;2.40;;
50104;SDS011;47690;39.202;-77.198;2023-04-15T06:32:19;2.50;;;2.30;;
50104;SDS011;47690;39.202;-77.198;2023-04-15T06:34:51;2.55;;;2.35;;
50104;SDS011;47690;39.202;-77.198;2023-04-15T06:37:21;3.55;;;2.30;;
50104;SDS011;47690;39.202;-77.198;2023-04-15T06:39:53;2.50;;;2.30;;
50104;SDS011;47690;39.202;-77.198;2023-04-15T06:42:26;3.22;;;2.28;;
50104;SDS011;47690;39.202;-77.198;2023-04-15T06:44:59;2.60;;;2.40;;
50104;SDS011;47690;39.202;-77.198;2023-04-15T06:47:33;2.60;;;2.20;;
50104;SDS011;47690;39.202;-77.198;2023-04-15T06:50:03;2.42;;;2.22;;
50104;SDS011;47690;39.202;-77.198;2023-04-15T06:52:35;3.70;;;2.45;;
50104;SDS011;47690;39.202;-77.198;2023-04-15T06:55:07;2.40;;;2.20;;
50104;SDS011;47690;39.202;-77.198;2023-04-15T06:57:38;2.45;;;2.25;;
50104;SDS011;47690;39.202;-77.198;2023-04-15T07:00:09;2.50;;;2.28;;
50104;SDS011;47690;39.202;-77.198;2023-04-15T07:02:43;2.47;;;2.28;;
50104;SDS011;47690;39.202;-77.198;2023-04-15T07:05:15;2.63;;;2.42;;
50104;SDS011;47690;39.202;-77.198;2023-04-15T07:07:47;2.63;;;2.40;;
50104;SDS011;47690;39.202;-77.198;2023-04-15T07:10:19;2.50;;;2.30;;
50104;SDS011;47690;39.202;-77.198;2023-04-15T07:12:52;3.10;;;2.40;;
50104;SDS011;47690;39.202;-77.198;2023-04-15T07:15:23;2.97;;;2.33;;
50104;SDS011;47690;39.202;-77.198;2023-04-15T07:17:59;3.20;;;2.35;;
50104;SDS011;47690;39.202;-77.198;2023-04-15T07:20:31;3.72;;;2.30;;
50104;SDS011;47690;39.202;-77.198;2023-04-15T07:23:04;2.78;;;2.50;;
50104;SDS011;47690;39.202;-77.198;2023-04-15T07:25:35;3.17;;;2.50;;
50104;SDS011;47690;39.202;-77.198;2023-04-15T07:28:07;3.50;;;2.58;;
50104;SDS011;47690;39.202;-77.198;2023-04-15T07:30:37;2.90;;;2.50;;
50104;SDS011;47690;39.202;-77.198;2023-04-15T07:33:11;2.50;;;2.30;;
50104;SDS011;47690;39.202;-77.198;2023-04-15T07:35:43;3.38;;;2.53;;
50104;SDS011;47690;39.202;-77.198;2023-04-15T07:38:13;2.63;;;2.42;;
50104;SDS011;47690;39.202;-77.198;2023-04-15T07:40:47;2.60;;;2.40;;
50104;SDS011;47690;39.202;-77.198;2023-04-15T07:43:19;3.20;;;2.50;;
50104;SDS011;47690;39.202;-77.198;2023-04-15T07:45:49;3.00;;;2.70;;
50104;SDS011;47690;39.202;-77.198;2023-04-15T07:48:20;2.97;;;2.45;;
50104;SDS011;47690;39.202;-77.198;2023-04-15T07:50:52;2.97;;;2.20;;
50104;SDS011;47690;39.202;-77.198;2023-04-15T07:53:24;2.42;;;2.22;;
50104;SDS011;47690;39.202;-77.198;2023-04-15T07:55:59;3.08;;;2.58;;
50104;SDS011;47690;39.202;-77.198;2023-04-15T07:58:32;2.75;;;2.33;;
50104;SDS011;47690;39.202;-77.198;2023-04-15T08:01:03;2.55;;;2.30;;
50104;SDS011;47690;39.202;-77.198;2023-04-15T08:03:35;2.58;;;2.35;;
50104;SDS011;47690;39.202;-77.198;2023-04-15T08:06:07;2.53;;;2.33;;
50104;SDS011;47690;39.202;-77.198;2023-04-15T08:08:39;2.70;;;2.40;;
50104;SDS011;47690;39.202;-77.198;2023-04-15T08:11:14;2.53;;;2.33;;
50104;SDS011;47690;39.202;-77.198;2023-04-15T08:13:46;2.90;;;2.30;;
50104;SDS011;47690;39.202;-77.198;2023-04-15T08:18:54;2.80;;;2.20;;
50104;SDS011;47690;39.202;-77.198;2023-04-15T08:21:31;2.50;;;2.30;;
50104;SDS011;47690;39.202;-77.198;2023-04-15T08:24:05;2.85;;;2.55;;
50104;SDS011;47690;39.202;-77.198;2023-04-15T08:26:39;2.40;;;2.20;;
50104;SDS011;47690;39.202;-77.198;2023-04-15T08:29:12;2.67;;;2.47;;
50104;SDS011;47690;39.202;-77.198;2023-04-15T08:31:51;2.90;;;2.33;;
50104;SDS011;47690;39.202;-77.198;2023-04-15T08:34:25;2.70;;;2.42;;
50104;SDS011;47690;39.202;-77.198;2023-04-15T08:36:59;2.88;;;2.30;;
50104;SDS011;47690;39.202;-77.198;2023-04-15T08:39:31;2.92;;;2.60;;
50104;SDS011;47690;39.202;-77.198;2023-04-15T08:42:10;2.63;;;2.42;;
50104;SDS011;47690;39.202;-77.198;2023-04-15T08:44:45;2.63;;;2.35;;
50104;SDS011;47690;39.202;-77.198;2023-04-15T08:47:20;2.60;;;2.30;;
50104;SDS011;47690;39.202;-77.198;2023-04-15T08:50:00;2.60;;;2.40;;
50104;SDS011;47690;39.202;-77.198;2023-04-15T08:52:33;2.80;;;2.45;;
50104;SDS011;47690;39.202;-77.198;2023-04-15T08:55:14;2.70;;;2.50;;
50104;SDS011;47690;39.202;-77.198;2023-04-15T08:57:54;2.65;;;2.45;;
50104;SDS011;47690;39.202;-77.198;2023-04-15T09:00:30;3.13;;;2.60;;
50104;SDS011;47690;39.202;-77.198;2023-04-15T09:03:15;2.92;;;2.63;;
50104;SDS011;47690;39.202;-77.198;2023-04-15T09:05:50;2.78;;;2.50;;
50104;SDS011;47690;39.202;-77.198;2023-04-15T09:10:57;2.35;;;2.15;;
50104;SDS011;47690;39.202;-77.198;2023-04-15T09:13:29;2.60;;;2.40;;
50104;SDS011;47690;39.202;-77.198;2023-04-15T09:16:06;3.33;;;2.58;;
50104;SDS011;47690;39.202;-77.198;2023-04-15T09:18:38;2.83;;;2.60;;
50104;SDS011;47690;39.202;-77.198;2023-04-15T09:21:11;3.13;;;2.60;;
50104;SDS011;47690;39.202;-77.198;2023-04-15T09:23:56;2.95;;;2.40;;
50104;SDS011;47690;39.202;-77.198;2023-04-15T09:26:30;2.95;;;2.40;;
50104;SDS011;47690;39.202;-77.198;2023-04-15T09:29:07;2.97;;;2.30;;
50104;SDS011;47690;39.202;-77.198;2023-04-15T09:31:45;3.13;;;2.45;;
50104;SDS011;47690;39.202;-77.198;2023-04-15T09:34:16;2.65;;;2.45;;
50104;SDS011;47690;39.202;-77.198;2023-04-15T09:39:19;3.00;;;2.70;;
50104;SDS011;47690;39.202;-77.198;2023-04-15T09:42:06;2.97;;;2.67;;
50104;SDS011;47690;39.202;-77.198;2023-04-15T09:44:38;3.03;;;2.72;;
50104;SDS011;47690;39.202;-77.198;2023-04-15T09:47:25;3.03;;;2.60;;
50104;SDS011;47690;39.202;-77.198;2023-04-15T09:50:00;3.28;;;2.70;;
50104;SDS011;47690;39.202;-77.198;2023-04-15T09:52:30;2.90;;;2.60;;
50104;SDS011;47690;39.202;-77.198;2023-04-15T09:57:36;4.55;;;2.83;;
50104;SDS011;47690;39.202;-77.198;2023-04-15T10:00:08;3.38;;;3.08;;
50104;SDS011;47690;39.202;-77.198;2023-04-15T10:02:40;3.08;;;2.75;;
50104;SDS011;47690;39.202;-77.198;2023-04-15T10:05:13;3.13;;;2.83;;
50104;SDS011;47690;39.202;-77.198;2023-04-15T10:07:50;3.00;;;2.67;;
50104;SDS011;47690;39.202;-77.198;2023-04-15T10:10:21;3.20;;;2.90;;
50104;SDS011;47690;39.202;-77.198;2023-04-15T10:12:52;3.20;;;2.90;;
50104;SDS011;47690;39.202;-77.198;2023-04-15T10:15:27;3.75;;;3.17;;
50104;SDS011;47690;39.202;-77.198;2023-04-15T10:18:01;3.22;;;2.90;;
50104;SDS011;47690;39.202;-77.198;2023-04-15T10:20:36;3.35;;;3.05;;
50104;SDS011;47690;39.202;-77.198;2023-04-15T10:23:10;3.03;;;2.73;;
50104;SDS011;47690;39.202;-77.198;2023-04-15T10:25:42;3.67;;;2.97;;
50104;SDS011;47690;39.202;-77.198;2023-04-15T10:28:15;3.53;;;3.22;;
50104;SDS011;47690;39.202;-77.198;2023-04-15T10:30:46;3.72;;;3.40;;
50104;SDS011;47690;39.202;-77.198;2023-04-15T10:33:22;3.70;;;3.13;;
50104;SDS011;47690;39.202;-77.198;2023-04-15T10:35:55;3.83;;;3.33;;
50104;SDS011;47690;39.202;-77.198;2023-04-15T10:38:32;3.60;;;3.30;;
50104;SDS011;47690;39.202;-77.198;2023-04-15T10:41:23;3.58;;;3.20;;
50104;SDS011;47690;39.202;-77.198;2023-04-15T10:44:01;3.70;;;2.97;;
50104;SDS011;47690;39.202;-77.198;2023-04-15T10:46:36;3.72;;;3.17;;
50104;SDS011;47690;39.202;-77.198;2023-04-15T10:49:14;3.45;;;3.15;;
50104;SDS011;47690;39.202;-77.198;2023-04-15T10:51:50;3.60;;;3.25;;
50104;SDS011;47690;39.202;-77.198;2023-04-15T10:59:31;3.55;;;3.25;;
50104;SDS011;47690;39.202;-77.198;2023-04-15T11:02:07;3.97;;;3.30;;
50104;SDS011;47690;39.202;-77.198;2023-04-15T11:04:51;3.53;;;3.15;;
50104;SDS011;47690;39.202;-77.198;2023-04-15T11:07:39;3.60;;;3.30;;
50104;SDS011;47690;39.202;-77.198;2023-04-15T11:13:01;3.33;;;3.03;;
50104;SDS011;47690;39.202;-77.198;2023-04-15T11:15:44;3.78;;;2.97;;
50104;SDS011;47690;39.202;-77.198;2023-04-15T11:18:18;3.90;;;3.30;;
50104;SDS011;47690;39.202;-77.198;2023-04-15T11:20:52;3.85;;;3.33;;
50104;SDS011;47690;39.202;-77.198;2023-04-15T11:23:43;4.65;;;3.10;;
50104;SDS011;47690;39.202;-77.198;2023-04-15T11:26:16;3.63;;;3.22;;
50104;SDS011;47690;39.202;-77.198;2023-04-15T11:28:52;3.47;;;3.17;;
50104;SDS011;47690;39.202;-77.198;2023-04-15T11:31:25;3.75;;;3.05;;
50104;SDS011;47690;39.202;-77.198;2023-04-15T11:34:01;3.60;;;3.13;;
50104;SDS011;47690;39.202;-77.198;2023-04-15T11:36:34;3.60;;;3.28;;
50104;SDS011;47690;39.202;-77.198;2023-04-15T11:39:08;3.42;;;3.13;;
50104;SDS011;47690;39.202;-77.198;2023-04-15T11:41:40;3.55;;;3.25;;
50104;SDS011;47690;39.202;-77.198;2023-04-15T11:44:15;3.85;;;3.45;;
50104;SDS011;47690;39.202;-77.198;2023-04-15T11:46:50;3.50;;;3.20;;
50104;SDS011;47690;39.202;-77.198;2023-04-15T11:49:31;3.60;;;3.30;;
50104;SDS011;47690;39.202;-77.198;2023-04-15T11:52:09;3.45;;;3.15;;
50104;SDS011;47690;39.202;-77.198;2023-04-15T11:54:43;3.75;;;3.40;;
50104;SDS011;47690;39.202;-77.198;2023-04-15T11:57:14;3.60;;;3.30;;
50104;SDS011;47690;39.202;-77.198;2023-04-15T12:07:59;4.10;;;3.10;;
50104;SDS011;47690;39.202;-77.198;2023-04-15T12:10:30;3.42;;;3.10;;
50104;SDS011;47690;39.202;-77.198;2023-04-15T12:21:17;3.28;;;2.97;;
50104;SDS011;47690;39.202;-77.198;2023-04-15T12:23:48;3.60;;;3.30;;
50104;SDS011;47690;39.202;-77.198;2023-04-15T12:26:27;4.03;;;3.40;;
50104;SDS011;47690;39.202;-77.198;2023-04-15T12:29:01;3.80;;;3.35;;
50104;SDS011;47690;39.202;-77.198;2023-04-15T12:34:31;4.32;;;3.33;;
50104;SDS011;47690;39.202;-77.198;2023-04-15T12:37:04;3.63;;;3.13;;
50104;SDS011;47690;39.202;-77.198;2023-04-15T12:39:39;5.30;;;3.65;;
50104;SDS011;47690;39.202;-77.198;2023-04-15T12:42:13;3.42;;;3.08;;
50104;SDS011;47690;39.202;-77.198;2023-04-15T12:44:46;3.70;;;3.20;;
50104;SDS011;47690;39.202;-77.198;2023-04-15T12:47:16;3.35;;;3.05;;
50104;SDS011;47690;39.202;-77.198;2023-04-15T12:49:49;4.63;;;3.50;;
50104;SDS011;47690;39.202;-77.198;2023-04-15T12:52:19;3.50;;;3.20;;
50104;SDS011;47690;39.202;-77.198;2023-04-15T12:54:50;3.72;;;2.92;;
50104;SDS011;47690;39.202;-77.198;2023-04-15T12:57:20;3.67;;;3.08;;
50104;SDS011;47690;39.202;-77.198;2023-04-15T12:59:54;4.03;;;3.50;;
50104;SDS011;47690;39.202;-77.198;2023-04-15T13:02:26;3.50;;;3.08;;
50104;SDS011;47690;39.202;-77.198;2023-04-15T13:04:56;4.57;;;3.50;;
50104;SDS011;47690;39.202;-77.198;2023-04-15T13:07:31;3.67;;;2.95;;
50104;SDS011;47690;39.202;-77.198;2023-04-15T13:10:01;3.30;;;3.00;;
50104;SDS011;47690;39.202;-77.198;2023-04-15T13:12:31;3.30;;;3.00;;
50104;SDS011;47690;39.202;-77.198;2023-04-15T13:15:11;3.33;;;2.85;;
50104;SDS011;47690;39.202;-77.198;2023-04-15T13:17:40;3.00;;;2.70;;
50104;SDS011;47690;39.202;-77.198;2023-04-15T13:20:11;3.08;;;2.67;;
50104;SDS011;47690;39.202;-77.198;2023-04-15T13:22:43;3.15;;;2.70;;
50104;SDS011;47690;39.202;-77.198;2023-04-15T13:25:12;3.13;;;2.83;;
50104;SDS011;47690;39.202;-77.198;2023-04-15T13:27:44;3.10;;;2.80;;
50104;SDS011;47690;39.202;-77.198;2023-04-15T13:30:15;3.08;;;2.80;;
50104;SDS011;47690;39.202;-77.198;2023-04-15T13:32:47;2.88;;;2.60;;
50104;SDS011;47690;39.202;-77.198;2023-04-15T13:35:18;3.05;;;2.60;;
50104;SDS011;47690;39.202;-77.198;2023-04-15T13:37:48;2.70;;;2.50;;
50104;SDS011;47690;39.202;-77.198;2023-04-15T13:40:18;2.60;;;2.40;;
50104;SDS011;47690;39.202;-77.198;2023-04-15T13:42:49;2.40;;;2.20;;
50104;SDS011;47690;39.202;-77.198;2023-04-15T13:45:21;2.90;;;2.60;;
50104;SDS011;47690;39.202;-77.198;2023-04-15T13:47:51;3.38;;;2.38;;
50104;SDS011;47690;39.202;-77.198;2023-04-15T13:50:22;2.47;;;2.28;;
50104;SDS011;47690;39.202;-77.198;2023-04-15T13:52:51;4.00;;;2.30;;
50104;SDS011;47690;39.202;-77.198;2023-04-15T13:55:23;3.17;;;2.50;;
50104;SDS011;47690;39.202;-77.198;2023-04-15T13:57:56;2.53;;;2.33;;
50104;SDS011;47690;39.202;-77.198;2023-04-15T14:00:27;2.60;;;2.40;;
50104;SDS011;47690;39.202;-77.198;2023-04-15T14:03:01;2.92;;;2.63;;
50104;SDS011;47690;39.202;-77.198;2023-04-15T14:05:34;2.83;;;2.45;;
50104;SDS011;47690;39.202;-77.198;2023-04-15T14:08:04;2.60;;;2.40;;
50104;SDS011;47690;39.202;-77.198;2023-04-15T14:10:34;2.60;;;2.30;;
50104;SDS011;47690;39.202;-77.198;2023-04-15T14:13:07;2.40;;;2.20;;
50104;SDS011;47690;39.202;-77.198;2023-04-15T14:15:36;2.53;;;2.33;;
50104;SDS011;47690;39.202;-77.198;2023-04-15T14:18:07;2.58;;;2.38;;
50104;SDS011;47690;39.202;-77.198;2023-04-15T14:20:37;2.42;;;2.22;;
50104;SDS011;47690;39.202;-77.198;2023-04-15T14:23:08;2.70;;;2.20;;
50104;SDS011;47690;39.202;-77.198;2023-04-15T14:25:41;3.60;;;2.40;;
50104;SDS011;47690;39.202;-77.198;2023-04-15T14:28:15;2.75;;;2.50;;
50104;SDS011;47690;39.202;-77.198;2023-04-15T14:30:48;2.25;;;2.05;;
50104;SDS011;47690;39.202;-77.198;2023-04-15T14:33:22;2.30;;;2.10;;
50104;SDS011;47690;39.202;-77.198;2023-04-15T14:35:56;2.63;;;2.13;;
50104;SDS011;47690;39.202;-77.198;2023-04-15T14:38:27;3.42;;;2.20;;
50104;SDS011;47690;39.202;-77.198;2023-04-15T14:40:58;2.50;;;2.30;;
50104;SDS011;47690;39.202;-77.198;2023-04-15T14:43:30;3.45;;;2.30;;
50104;SDS011;47690;39.202;-77.198;2023-04-15T14:46:00;2.58;;;2.38;;
50104;SDS011;47690;39.202;-77.198;2023-04-15T14:48:31;2.33;;;2.13;;
50104;SDS011;47690;39.202;-77.198;2023-04-15T14:51:00;3.10;;;2.35;;
50104;SDS011;47690;39.202;-77.198;2023-04-15T14:53:31;2.90;;;2.10;;
50104;SDS011;47690;39.202;-77.198;2023-04-15T14:56:02;2.30;;;2.10;;
50104;SDS011;47690;39.202;-77.198;2023-04-15T14:58:32;2.33;;;2.00;;
50104;SDS011;47690;39.202;-77.198;2023-04-15T15:01:03;2.67;;;2.08;;
50104;SDS011;47690;39.202;-77.198;2023-04-15T15:03:34;2.25;;;2.05;;
50104;SDS011;47690;39.202;-77.198;2023-04-15T15:06:07;2.30;;;2.10;;
50104;SDS011;47690;39.202;-77.198;2023-04-15T15:08:36;2.20;;;2.00;;
50104;SDS011;47690;39.202;-77.198;2023-04-15T15:11:07;2.78;;;2.30;;
50104;SDS011;47690;39.202;-77.198;2023-04-15T15:13:36;2.83;;;2.10;;
50104;SDS011;47690;39.202;-77.198;2023-04-15T15:16:06;2.30;;;2.10;;
50104;SDS011;47690;39.202;-77.198;2023-04-15T15:18:40;2.00;;;1.90;;
50104;SDS011;47690;39.202;-77.198;2023-04-15T15:21:11;2.45;;;2.20;;
50104;SDS011;47690;39.202;-77.198;2023-04-15T15:23:42;2.22;;;2.05;;
50104;SDS011;47690;39.202;-77.198;2023-04-15T15:26:14;2.22;;;2.00;;
50104;SDS011;47690;39.202;-77.198;2023-04-15T15:28:44;2.20;;;2.00;;
50104;SDS011;47690;39.202;-77.198;2023-04-15T15:31:14;2.10;;;1.90;;
50104;SDS011;47690;39.202;-77.198;2023-04-15T15:33:44;2.58;;;2.05;;
50104;SDS011;47690;39.202;-77.198;2023-04-15T15:36:14;2.30;;;2.10;;